createdAt,value
2023-10-26T05:24:00.896Z,9.70
2023-10-26T05:26:28.441Z,9.80
2023-10-26T05:28:55.253Z,9.60
2023-10-26T05:31:22.097Z,9.80
2023-10-26T05:33:49.052Z,9.30
2023-10-26T05:36:16.513Z,9.40
2023-10-26T05:38:45.893Z,9.30
2023-10-26T05:41:14.160Z,9.10
2023-10-26T05:43:40.990Z,9.10
2023-10-26T05:46:07.929Z,9.10
2023-10-26T05:48:35.328Z,9.70
2023-10-26T05:51:02.382Z,9.10
2023-10-26T05:53:29.318Z,9.20
2023-10-26T05:55:58.596Z,10.00
2023-10-26T05:58:26.674Z,9.10
2023-10-26T06:00:53.751Z,9.10
2023-10-26T06:03:20.782Z,9.10
2023-10-26T06:05:48.693Z,9.00
2023-10-26T06:08:16.531Z,9.10
2023-10-26T06:10:43.705Z,9.00
2023-10-26T06:13:10.713Z,9.10
2023-10-26T06:15:37.917Z,9.30
2023-10-26T06:18:05.058Z,9.30
2023-10-26T06:20:32.008Z,9.10
2023-10-26T06:22:58.864Z,9.20
2023-10-26T06:25:27.625Z,9.20
2023-10-26T06:27:54.538Z,9.20
2023-10-26T06:30:21.586Z,9.20
2023-10-26T06:32:48.421Z,9.20
2023-10-26T06:35:15.378Z,9.20
2023-10-26T06:37:42.269Z,9.10
2023-10-26T06:40:09.924Z,9.20
2023-10-26T06:42:37.557Z,9.20
2023-10-26T06:45:06.620Z,9.10
2023-10-26T06:47:33.595Z,9.20
2023-10-26T06:50:00.562Z,9.50
2023-10-26T06:52:27.433Z,9.30
2023-10-26T06:54:54.244Z,9.20
2023-10-26T06:57:21.186Z,9.20
2023-10-26T06:59:48.066Z,9.30
2023-10-26T07:02:14.897Z,9.30
2023-10-26T07:04:41.903Z,9.30
2023-10-26T07:07:09.293Z,9.40
2023-10-26T07:09:37.694Z,9.40
2023-10-26T07:12:05.650Z,9.70
2023-10-26T07:14:32.785Z,9.60
2023-10-26T07:16:59.937Z,9.50
2023-10-26T07:19:26.756Z,9.60
2023-10-26T07:21:53.518Z,9.50
2023-10-26T07:24:20.342Z,9.50
2023-10-26T07:26:50.475Z,9.60
2023-10-26T07:29:17.368Z,10.00
2023-10-26T07:31:46.830Z,9.90
2023-10-26T07:34:14.713Z,9.90
2023-10-26T07:36:41.697Z,10.00
2023-10-26T07:39:44.725Z,10.20
2023-10-26T07:42:07.423Z,10.00
2023-10-26T07:44:37.732Z,10.20
2023-10-26T07:47:05.734Z,10.40
2023-10-26T07:49:32.501Z,10.10
2023-10-26T07:51:59.349Z,10.00
2023-10-26T07:54:26.406Z,10.20
2023-10-26T07:56:53.238Z,10.70
2023-10-26T07:59:20.110Z,10.40
2023-10-26T08:01:48.820Z,10.60
2023-10-26T08:04:15.808Z,10.60
2023-10-26T08:06:42.610Z,11.50
2023-10-26T08:09:09.500Z,10.60
2023-10-26T08:11:37.081Z,10.40
2023-10-26T08:14:04.079Z,10.60
2023-10-26T08:16:51.299Z,10.40
2023-10-26T08:19:18.490Z,10.50
2023-10-26T08:21:45.381Z,10.50
2023-10-26T08:24:12.221Z,10.50
2023-10-26T08:26:39.399Z,10.90
2023-10-26T08:29:16.060Z,10.60
2023-10-26T08:31:45.743Z,10.50
2023-10-26T08:34:12.656Z,11.20
2023-10-26T08:36:42.214Z,10.50
2023-10-26T08:39:11.543Z,10.60
2023-10-26T08:41:38.440Z,10.50
2023-10-26T08:44:05.551Z,10.50
2023-10-26T08:46:32.811Z,10.50
2023-10-26T08:49:03.435Z,10.50
2023-10-26T08:51:30.366Z,10.60
2023-10-26T08:53:58.375Z,11.00
2023-10-26T08:56:25.552Z,10.80
2023-10-26T08:59:04.048Z,10.90
2023-10-26T09:01:31.024Z,10.80
2023-10-26T09:03:57.918Z,10.90
2023-10-26T09:06:24.742Z,11.00
2023-10-26T09:09:04.698Z,10.90
2023-10-26T09:11:31.574Z,11.80
2023-10-26T09:14:12.826Z,10.80
2023-10-26T09:16:41.615Z,11.00
2023-10-26T09:19:09.131Z,10.70
2023-10-26T09:21:49.265Z,10.60
2023-10-26T09:24:25.993Z,10.60
2023-10-26T09:26:58.039Z,10.70
2023-10-26T09:29:41.191Z,10.60
2023-10-26T09:32:09.717Z,10.70
2023-10-26T09:34:44.661Z,10.80
2023-10-26T09:37:12.892Z,10.80
2023-10-26T09:39:42.588Z,10.90
2023-10-26T09:42:13.065Z,10.90
2023-10-26T09:44:40.176Z,10.90
2023-10-26T09:47:10.000Z,10.80
2023-10-26T09:49:37.055Z,11.10
2023-10-26T09:52:04.330Z,11.10
2023-10-26T09:54:37.238Z,11.10
2023-10-26T09:57:33.390Z,11.10
2023-10-26T10:00:00.816Z,11.30
2023-10-26T10:02:27.842Z,11.50
2023-10-26T10:04:54.618Z,11.70
2023-10-26T10:07:45.089Z,12.10
2023-10-26T10:10:13.898Z,12.00
2023-10-26T10:12:41.538Z,11.80
2023-10-26T10:17:45.857Z,12.10
2023-10-26T10:20:18.498Z,12.40
2023-10-26T10:22:45.621Z,12.40
2023-10-26T10:25:13.570Z,12.50
2023-10-26T10:27:41.754Z,12.40
2023-10-26T10:30:09.727Z,12.80
2023-10-26T10:32:46.088Z,12.40
2023-10-26T10:35:22.469Z,12.80
2023-10-26T10:38:14.493Z,13.00
2023-10-26T10:40:42.322Z,13.40
2023-10-26T10:43:09.784Z,13.70
2023-10-26T10:45:36.757Z,14.40
2023-10-26T10:48:06.172Z,13.90
2023-10-26T10:50:33.112Z,13.80
2023-10-26T10:53:00.032Z,13.80
2023-10-26T10:55:31.697Z,13.60
2023-10-26T10:58:03.134Z,13.50
2023-10-26T11:00:44.286Z,13.40
2023-10-26T11:03:18.735Z,13.80
2023-10-26T11:05:45.888Z,13.90
2023-10-26T11:08:12.831Z,13.40
2023-10-26T11:10:40.047Z,13.50
2023-10-26T11:13:07.078Z,13.80
2023-10-26T11:15:35.843Z,13.40
2023-10-26T11:18:04.721Z,13.70
2023-10-26T11:20:41.906Z,13.30
2023-10-26T11:23:10.487Z,13.70
2023-10-26T11:25:37.746Z,13.60
2023-10-26T11:28:05.519Z,13.70
2023-10-26T11:30:49.807Z,14.10
2023-10-26T11:33:43.344Z,14.10
2023-10-26T11:36:12.099Z,13.90
2023-10-26T11:38:52.243Z,14.00
2023-10-26T11:41:26.753Z,14.40
2023-10-26T11:43:53.590Z,14.40
2023-10-26T11:46:33.528Z,14.30
2023-10-26T11:49:01.813Z,14.00
2023-10-26T11:51:29.389Z,14.00
2023-10-26T11:53:58.002Z,14.30
2023-10-26T11:56:25.024Z,14.00
2023-10-26T11:58:51.867Z,13.90
2023-10-26T12:01:18.680Z,13.90
2023-10-26T12:03:47.281Z,14.20
2023-10-26T12:06:14.456Z,14.10
2023-10-26T12:08:41.555Z,14.30
2023-10-26T12:11:08.410Z,14.30
2023-10-26T12:13:36.784Z,14.20
2023-10-26T12:16:04.006Z,14.60
2023-10-26T12:18:31.043Z,14.20
2023-10-26T12:20:57.964Z,14.50
2023-10-26T12:23:24.849Z,14.20
2023-10-26T12:25:51.751Z,14.20
2023-10-26T12:28:23.837Z,14.10
2023-10-26T12:30:54.616Z,14.20
2023-10-26T12:33:21.691Z,14.20
2023-10-26T12:35:49.177Z,14.20
2023-10-26T12:38:16.404Z,14.20
2023-10-26T12:40:43.334Z,14.30
2023-10-26T12:43:10.354Z,14.40
2023-10-26T12:45:38.134Z,14.40
2023-10-26T12:48:05.290Z,14.20
2023-10-26T12:50:32.181Z,14.10
2023-10-26T12:52:59.088Z,14.60
2023-10-26T12:55:26.103Z,14.20
2023-10-26T12:57:53.987Z,13.90
2023-10-26T13:00:21.703Z,14.00
2023-10-26T13:02:48.606Z,14.10
2023-10-26T13:05:15.562Z,14.00
2023-10-26T13:07:42.418Z,14.10
2023-10-26T13:10:09.588Z,14.10
2023-10-26T13:12:37.740Z,14.00
2023-10-26T13:15:05.966Z,14.30
2023-10-26T13:17:34.072Z,14.00
2023-10-26T13:20:01.405Z,14.00
2023-10-26T13:22:28.328Z,13.80
2023-10-26T13:24:55.121Z,14.10
2023-10-26T13:27:22.207Z,14.20
2023-10-26T13:29:50.113Z,13.90
2023-10-26T13:32:17.035Z,14.20
2023-10-26T13:34:44.202Z,13.90
2023-10-26T13:37:11.138Z,14.00
2023-10-26T13:39:38.580Z,13.90
2023-10-26T13:42:05.679Z,13.60
2023-10-26T13:44:32.493Z,13.60
2023-10-26T13:46:59.242Z,13.80
2023-10-26T13:49:26.002Z,14.00
2023-10-26T13:51:53.092Z,14.30
2023-10-26T13:54:19.830Z,14.00
2023-10-26T13:56:46.960Z,14.10
2023-10-26T13:59:13.906Z,14.30
2023-10-26T14:01:40.947Z,14.70
2023-10-26T14:04:07.876Z,14.50
2023-10-26T14:06:34.836Z,14.50
2023-10-26T14:09:02.235Z,14.40
2023-10-26T14:11:30.843Z,14.60
2023-10-26T14:13:58.397Z,14.30
2023-10-26T14:16:27.224Z,14.20
2023-10-26T14:18:55.227Z,14.50
2023-10-26T14:21:22.734Z,14.50
2023-10-26T14:23:49.608Z,14.10
2023-10-26T14:26:16.789Z,14.10
2023-10-26T14:28:45.304Z,14.10
2023-10-26T14:31:13.281Z,14.50
2023-10-26T14:33:40.178Z,14.50
2023-10-26T14:36:07.336Z,14.30
2023-10-26T14:38:34.345Z,14.20
2023-10-26T14:41:02.017Z,14.40
2023-10-26T14:43:29.603Z,13.90
2023-10-26T14:45:56.610Z,13.90
2023-10-26T14:48:23.609Z,14.00
2023-10-26T14:50:58.860Z,14.00
2023-10-26T14:53:26.454Z,13.90
2023-10-26T14:55:55.279Z,13.80
2023-10-26T14:58:23.263Z,13.80
2023-10-26T15:00:51.557Z,13.70
2023-10-26T15:03:18.439Z,13.60
2023-10-26T15:05:45.954Z,13.70
2023-10-26T15:08:13.020Z,13.60
2023-10-26T15:10:48.590Z,13.50
2023-10-26T15:13:16.380Z,13.60
2023-10-26T15:15:43.987Z,13.70
2023-10-26T15:18:11.347Z,13.90
2023-10-26T15:20:38.289Z,13.60
2023-10-26T15:23:05.137Z,13.50
2023-10-26T15:25:35.745Z,13.30
2023-10-26T15:28:02.576Z,13.80
2023-10-26T15:30:29.432Z,13.50
2023-10-26T15:32:56.334Z,13.70
2023-10-26T15:35:23.188Z,13.30
2023-10-26T15:37:50.851Z,13.40
2023-10-26T15:40:17.736Z,13.20
2023-10-26T15:42:44.638Z,13.10
2023-10-26T15:45:12.610Z,13.30
2023-10-26T15:47:39.827Z,13.10
2023-10-26T15:50:07.241Z,13.10
2023-10-26T15:52:34.291Z,13.10
2023-10-26T15:55:01.081Z,13.30
2023-10-26T15:57:27.956Z,13.30
2023-10-26T15:59:54.793Z,13.70
2023-10-26T16:02:21.631Z,13.30
2023-10-26T16:04:50.608Z,13.20
2023-10-26T16:07:17.488Z,13.10
2023-10-26T16:09:45.390Z,13.10
2023-10-26T16:12:12.362Z,12.80
2023-10-26T16:14:39.094Z,12.80
2023-10-26T16:17:06.005Z,12.60
2023-10-26T16:19:32.913Z,12.50
2023-10-26T16:21:59.697Z,12.60
2023-10-26T16:24:26.461Z,12.30
2023-10-26T16:26:53.303Z,12.20
2023-10-26T16:29:20.022Z,12.30
2023-10-26T16:31:47.132Z,12.30
2023-10-26T16:34:14.184Z,12.30
2023-10-26T16:36:41.008Z,12.60
2023-10-26T16:39:07.856Z,12.30
2023-10-26T16:41:34.653Z,12.60
2023-10-26T16:44:01.424Z,12.40
2023-10-26T16:46:28.379Z,12.40
2023-10-26T16:48:56.876Z,12.60
2023-10-26T16:51:23.749Z,12.60
2023-10-26T16:53:50.561Z,12.50
2023-10-26T16:56:17.355Z,12.70
2023-10-26T16:58:44.076Z,12.60
2023-10-26T17:01:11.727Z,12.60
2023-10-26T17:03:39.265Z,12.50
2023-10-26T17:06:06.414Z,12.90
2023-10-26T17:08:33.278Z,12.50
2023-10-26T17:11:00.382Z,12.70
2023-10-26T17:13:27.308Z,12.50
2023-10-26T17:15:54.933Z,12.80
2023-10-26T17:18:22.836Z,12.50
2023-10-26T17:20:50.430Z,12.70
2023-10-26T17:23:17.337Z,12.50
2023-10-26T17:25:44.270Z,12.60
2023-10-26T17:28:11.317Z,12.60
2023-10-26T17:30:38.329Z,12.50
2023-10-26T17:33:06.828Z,12.60
2023-10-26T17:35:43.648Z,12.80
2023-10-26T17:38:11.244Z,12.70
2023-10-26T17:40:38.282Z,12.90
2023-10-26T17:43:07.077Z,12.40
2023-10-26T17:45:34.505Z,12.70
2023-10-26T17:48:01.905Z,13.00
2023-10-26T17:50:29.057Z,12.70
2023-10-26T17:52:56.043Z,13.10
2023-10-26T17:55:23.159Z,12.70
2023-10-26T17:57:50.285Z,12.80
2023-10-26T18:00:20.151Z,12.70
2023-10-26T18:02:47.200Z,12.60
2023-10-26T18:05:14.607Z,13.10
2023-10-26T18:07:41.464Z,12.40
2023-10-26T18:10:09.391Z,12.60
2023-10-26T18:12:37.038Z,12.50
2023-10-26T18:15:06.724Z,13.00
2023-10-26T18:17:34.144Z,12.30
2023-10-26T18:20:01.111Z,13.00
2023-10-26T18:22:42.183Z,12.60
2023-10-26T18:30:06.608Z,11.90
